createdAt,value
2022-10-02T00:01:04.772Z,92792.53
2022-10-02T00:02:36.480Z,92792.53
2022-10-02T00:04:09.023Z,92786.31
2022-10-02T00:05:42.708Z,92789.81
2022-10-02T00:07:14.497Z,92789.09
2022-10-02T00:08:46.116Z,92794.47
2022-10-02T00:10:20.329Z,92792.53
2022-10-02T00:11:54.891Z,92796.38
2022-10-02T00:13:37.573Z,92796.47
2022-10-02T00:15:17.070Z,92796.03
2022-10-02T00:16:49.894Z,92796.47
2022-10-02T00:18:25.082Z,92797.25
2022-10-02T00:19:56.974Z,92800.34
2022-10-02T00:21:37.890Z,92792.63
2022-10-02T00:23:18.040Z,92800.03
2022-10-02T00:24:52.224Z,92802.41
2022-10-02T00:26:25.075Z,92809.44
2022-10-02T00:27:56.762Z,92814.44
2022-10-02T00:29:28.698Z,92819.44
2022-10-02T00:31:06.533Z,92821.72
2022-10-02T00:32:41.182Z,92826.19
2022-10-02T00:34:15.370Z,92818.78
2022-10-02T00:36:13.558Z,92828.06
2022-10-02T00:37:52.577Z,92825.47
2022-10-02T00:39:27.035Z,92819.63
2022-10-02T00:41:05.110Z,92815.31
2022-10-02T00:42:36.841Z,92812.41
2022-10-02T00:44:08.591Z,92812.34
2022-10-02T00:45:46.509Z,92822.00
2022-10-02T00:47:18.113Z,92826.53
2022-10-02T00:48:52.774Z,92820.94
2022-10-02T00:50:27.847Z,92821.53
2022-10-02T00:52:37.493Z,92815.94
2022-10-02T00:54:15.091Z,92818.53
2022-10-02T00:56:05.285Z,92825.09
2022-10-02T00:57:47.814Z,92827.94
2022-10-02T00:59:39.603Z,92834.16
2022-10-02T01:01:16.897Z,92837.56
2022-10-02T01:02:58.615Z,92843.44
2022-10-02T01:04:36.938Z,92840.72
2022-10-02T01:06:08.682Z,92844.56
2022-10-02T01:07:42.341Z,92840.72
2022-10-02T01:09:13.972Z,92839.13
2022-10-02T01:10:45.491Z,92838.69
2022-10-02T01:12:17.123Z,92845.28
2022-10-02T01:13:48.817Z,92854.22
2022-10-02T01:15:21.521Z,92849.13
2022-10-02T01:16:53.265Z,92848.41
2022-10-02T01:18:24.802Z,92842.97
2022-10-02T01:19:56.361Z,92849.94
2022-10-02T01:21:31.609Z,92848.69
2022-10-02T01:23:12.837Z,92839.31
2022-10-02T01:24:53.662Z,92836.94
2022-10-02T01:26:25.299Z,92835.34
2022-10-02T01:27:57.297Z,92833.34
2022-10-02T01:29:28.886Z,92838.00
2022-10-02T01:31:10.718Z,92845.34
2022-10-02T01:32:43.374Z,92847.63
2022-10-02T01:34:15.055Z,92848.41
2022-10-02T01:35:46.585Z,92838.56
2022-10-02T01:37:18.257Z,92840.50
2022-10-02T01:38:50.114Z,92840.06
2022-10-02T01:40:28.835Z,92849.38
2022-10-02T01:42:00.368Z,92850.56
2022-10-02T01:43:32.518Z,92856.44
2022-10-02T01:45:04.848Z,92856.44
2022-10-02T01:46:36.741Z,92859.06
2022-10-02T01:48:12.402Z,92856.34
2022-10-02T01:49:46.753Z,92854.34
2022-10-02T01:51:37.195Z,92859.31
2022-10-02T01:53:14.557Z,92864.75
2022-10-02T01:54:49.242Z,92868.50
2022-10-02T01:56:27.469Z,92872.34
2022-10-02T01:58:17.914Z,92872.69
2022-10-02T01:59:59.552Z,92877.34
2022-10-02T02:01:35.464Z,92880.75
2022-10-02T02:03:12.885Z,92879.94
2022-10-02T02:04:50.804Z,92885.72
2022-10-02T02:06:27.234Z,92889.91
2022-10-02T02:08:02.420Z,92896.13
2022-10-02T02:09:36.961Z,92891.84
2022-10-02T02:11:12.251Z,92889.81
2022-10-02T02:12:44.230Z,92895.47
2022-10-02T02:14:17.025Z,92900.44
2022-10-02T02:16:01.408Z,92901.91
2022-10-02T02:17:33.071Z,92897.19
2022-10-02T02:19:04.556Z,92902.50
2022-10-02T02:20:37.148Z,92905.44
2022-10-02T02:22:10.885Z,92907.59
2022-10-02T02:23:42.693Z,92910.88
2022-10-02T02:25:15.804Z,92918.13
2022-10-02T02:26:47.612Z,92913.06
2022-10-02T02:28:19.525Z,92914.53
2022-10-02T02:29:51.669Z,92917.91
2022-10-02T02:31:25.031Z,92921.78
2022-10-02T02:32:57.912Z,92918.16
2022-10-02T02:34:34.026Z,92920.88
2022-10-02T02:36:07.901Z,92922.00
2022-10-02T02:37:39.938Z,92925.50
2022-10-02T02:39:14.230Z,92939.50
2022-10-02T02:40:45.784Z,92930.91
2022-10-02T02:42:18.188Z,92941.44
2022-10-02T02:43:59.263Z,92935.56
2022-10-02T02:45:32.490Z,92930.81
2022-10-02T02:47:04.093Z,92929.13
2022-10-02T02:48:46.234Z,92929.00
2022-10-02T02:50:20.658Z,92933.63
2022-10-02T02:51:52.629Z,92933.63
2022-10-02T02:53:25.420Z,92945.28
2022-10-02T02:55:17.174Z,92936.34
2022-10-02T02:56:49.140Z,92944.47
2022-10-02T02:58:31.736Z,92944.16
2022-10-02T03:00:04.317Z,92950.38
2022-10-02T03:01:36.075Z,92952.63
2022-10-02T03:03:08.189Z,92967.31
2022-10-02T03:04:39.755Z,92969.13
2022-10-02T03:06:19.028Z,92974.09
2022-10-02T03:07:54.559Z,92964.38
2022-10-02T03:09:26.175Z,92982.56
2022-10-02T03:11:00.644Z,92983.56
2022-10-02T03:12:35.966Z,92976.88
2022-10-02T03:14:13.803Z,92992.72
2022-10-02T03:15:53.323Z,92996.88
2022-10-02T03:17:31.227Z,92991.34
2022-10-02T03:19:10.767Z,92995.50
2022-10-02T03:20:53.295Z,93002.41
2022-10-02T03:22:29.547Z,93004.66
2022-10-02T03:24:09.690Z,93005.31
2022-10-02T03:25:44.004Z,93007.88
2022-10-02T03:27:18.792Z,93010.00
2022-10-02T03:28:56.773Z,93012.59
2022-10-02T03:30:28.705Z,93017.91
2022-10-02T03:32:00.531Z,93022.06
2022-10-02T03:33:32.270Z,93027.50
2022-10-02T03:35:04.456Z,93020.81
2022-10-02T03:36:36.204Z,93025.44
2022-10-02T03:38:08.733Z,93022.28
2022-10-02T03:39:41.146Z,93024.84
2022-10-02T03:41:13.490Z,93025.19
2022-10-02T03:42:45.100Z,93010.72
2022-10-02T03:44:16.837Z,93014.31
2022-10-02T03:45:51.491Z,93025.34
2022-10-02T03:47:23.586Z,93035.38
2022-10-02T03:48:56.810Z,93029.31
2022-10-02T03:50:31.729Z,93030.56
2022-10-02T03:52:05.712Z,93033.75
2022-10-02T03:53:37.385Z,93023.81
2022-10-02T03:55:12.016Z,93017.28
2022-10-02T03:56:43.733Z,93017.94
2022-10-02T03:58:16.288Z,93012.06
2022-10-02T04:00:00.234Z,93018.00
2022-10-02T04:01:35.850Z,93024.88
2022-10-02T04:03:11.529Z,93024.78
2022-10-02T04:04:47.437Z,93028.47
2022-10-02T04:06:37.852Z,93029.91
2022-10-02T04:08:10.977Z,93024.03
2022-10-02T04:09:44.077Z,93025.50
2022-10-02T04:11:35.650Z,93023.59
2022-10-02T04:13:11.218Z,93021.00
2022-10-02T04:14:42.811Z,93022.06
2022-10-02T04:16:24.503Z,93015.97
2022-10-02T04:17:59.528Z,93029.31
2022-10-02T04:19:36.672Z,93027.06
2022-10-02T04:21:20.558Z,93034.06
2022-10-02T04:23:01.688Z,93033.59
2022-10-02T04:24:48.667Z,93027.72
2022-10-02T04:26:22.512Z,93041.25
2022-10-02T04:28:06.023Z,93039.69
2022-10-02T04:29:38.979Z,93042.38
2022-10-02T04:31:11.789Z,93050.97
2022-10-02T04:32:43.973Z,93057.66
2022-10-02T04:34:15.577Z,93058.88
2022-10-02T04:36:05.518Z,93056.16
2022-10-02T04:37:57.506Z,93061.94
2022-10-02T04:39:46.594Z,93060.47
2022-10-02T04:41:27.619Z,93067.00
2022-10-02T04:43:15.951Z,93069.72
2022-10-02T04:44:50.243Z,93080.53
2022-10-02T04:46:23.115Z,93069.06
2022-10-02T04:48:06.815Z,93076.72
2022-10-02T04:50:01.425Z,93091.38
2022-10-02T04:51:45.032Z,93086.75
2022-10-02T04:53:19.044Z,93088.34
2022-10-02T04:55:09.052Z,93100.44
2022-10-02T04:56:56.697Z,93109.03
2022-10-02T04:58:47.116Z,93102.34
2022-10-02T05:00:19.581Z,93109.69
2022-10-02T05:01:57.027Z,93106.78
2022-10-02T05:03:28.752Z,93110.28
2022-10-02T05:05:22.033Z,93113.47
2022-10-02T05:06:58.568Z,93126.22
2022-10-02T05:08:33.032Z,93117.28
2022-10-02T05:10:04.620Z,93111.88
2022-10-02T05:11:42.938Z,93121.91
2022-10-02T05:13:32.564Z,93118.88
2022-10-02T05:15:23.359Z,93131.41
2022-10-02T05:16:55.754Z,93130.75
2022-10-02T05:18:39.628Z,93133.59
2022-10-02T05:20:29.026Z,93133.38
2022-10-02T05:22:19.129Z,93124.28
2022-10-02T05:23:56.149Z,93131.09
2022-10-02T05:25:42.702Z,93132.94
2022-10-02T05:27:23.481Z,93146.75
2022-10-02T05:28:55.548Z,93146.53
2022-10-02T05:30:27.289Z,93146.34
2022-10-02T05:32:06.420Z,93148.16
2022-10-02T05:33:47.427Z,93154.09
2022-10-02T05:35:26.652Z,93156.16
2022-10-02T05:37:02.737Z,93164.09
2022-10-02T05:38:37.489Z,93163.91
2022-10-02T05:40:15.251Z,93161.13
2022-10-02T05:42:05.305Z,93157.28
2022-10-02T05:43:40.258Z,93160.88
2022-10-02T05:45:15.936Z,93160.97
2022-10-02T05:47:10.965Z,93160.06
2022-10-02T05:48:46.854Z,93163.78
2022-10-02T05:50:19.129Z,93170.22
2022-10-02T05:52:01.278Z,93174.97
2022-10-02T05:53:37.719Z,93176.66
2022-10-02T05:55:15.661Z,93180.66
2022-10-02T05:56:49.001Z,93185.38
2022-10-02T05:58:42.059Z,93186.97
2022-10-02T06:00:13.926Z,93183.56
2022-10-02T06:01:46.818Z,93191.53
2022-10-02T06:03:40.036Z,93195.41
2022-10-02T06:05:19.036Z,93195.06
2022-10-02T06:06:54.440Z,93197.91
2022-10-02T06:08:37.396Z,93195.63
2022-10-02T06:10:13.481Z,93202.88
2022-10-02T06:11:50.497Z,93212.81
2022-10-02T06:13:24.334Z,93210.78
2022-10-02T06:15:02.472Z,93220.53
2022-10-02T06:16:40.240Z,93218.25
2022-10-02T06:18:17.328Z,93218.59
2022-10-02T06:20:07.702Z,93220.16
2022-10-02T06:21:45.283Z,93221.84
2022-10-02T06:23:20.944Z,93233.19
2022-10-02T06:24:58.116Z,93232.41
2022-10-02T06:26:38.033Z,93238.63
2022-10-02T06:28:24.198Z,93232.75
2022-10-02T06:29:59.524Z,93238.53
2022-10-02T06:31:36.579Z,93240.13
2022-10-02T06:33:14.333Z,93248.03
2022-10-02T06:34:48.150Z,93244.09
2022-10-02T06:36:25.872Z,93248.94
2022-10-02T06:37:59.057Z,93249.28
2022-10-02T06:39:36.951Z,93250.41
2022-10-02T06:41:20.836Z,93245.31
2022-10-02T06:42:53.016Z,93245.31
2022-10-02T06:44:31.201Z,93247.69
2022-10-02T06:46:08.533Z,93247.94
2022-10-02T06:47:40.783Z,93257.06
2022-10-02T06:49:41.639Z,93270.75
2022-10-02T06:51:32.459Z,93263.50
2022-10-02T06:53:07.606Z,93261.47
2022-10-02T06:54:46.995Z,93258.59
2022-10-02T06:56:18.635Z,93260.09
2022-10-02T06:57:51.528Z,93268.91
2022-10-02T06:59:42.056Z,93276.25
2022-10-02T07:01:15.924Z,93269.78
2022-10-02T07:03:06.967Z,93268.84
2022-10-02T07:12:37.511Z,93288.91
2022-10-02T07:14:28.202Z,93284.88
2022-10-02T07:16:01.119Z,93291.22
2022-10-02T07:17:53.030Z,93290.72
2022-10-02T07:19:33.526Z,93281.34
2022-10-02T07:21:08.413Z,93282.81
2022-10-02T07:22:59.653Z,93288.00
2022-10-02T07:24:43.901Z,93288.13
2022-10-02T07:26:24.888Z,93289.44
2022-10-02T07:28:00.170Z,93288.84
2022-10-02T07:29:54.466Z,93290.81
2022-10-02T07:31:26.205Z,93293.88
2022-10-02T07:33:02.490Z,93299.13
2022-10-02T07:34:56.371Z,93294.28
2022-10-02T07:36:35.029Z,93298.00
2022-10-02T07:38:43.392Z,93308.09
2022-10-02T07:40:35.230Z,93303.97
2022-10-02T07:42:13.009Z,93297.69
2022-10-02T07:43:50.904Z,93301.19
2022-10-02T07:45:31.918Z,93310.66
2022-10-02T07:47:06.559Z,93306.22
2022-10-02T07:48:44.549Z,93302.47
2022-10-02T07:50:24.731Z,93306.19
2022-10-02T07:52:05.158Z,93311.03
2022-10-02T07:53:40.595Z,93306.75
2022-10-02T07:55:16.735Z,93308.94
2022-10-02T07:56:49.686Z,93315.63
2022-10-02T07:58:27.473Z,93316.88
2022-10-02T08:00:04.817Z,93312.47
2022-10-02T08:01:37.307Z,93298.03
2022-10-02T08:03:19.145Z,93306.50
2022-10-02T08:04:50.970Z,93306.41
2022-10-02T08:06:22.632Z,93308.09
2022-10-02T08:07:58.092Z,93308.34
2022-10-02T08:09:34.253Z,93299.66
2022-10-02T08:11:10.135Z,93308.84
2022-10-02T08:12:44.601Z,93299.78
2022-10-02T08:14:16.276Z,93295.41
2022-10-02T08:15:53.002Z,93290.94
2022-10-02T08:17:48.626Z,93295.19
2022-10-02T08:19:21.318Z,93293.28
2022-10-02T08:20:53.494Z,93287.13
2022-10-02T08:22:28.872Z,93285.06
2022-10-02T08:24:01.925Z,93291.81
2022-10-02T08:25:43.169Z,93291.16
2022-10-02T08:27:18.957Z,93292.09
2022-10-02T08:29:02.267Z,93289.41
2022-10-02T08:30:33.824Z,93297.63
2022-10-02T08:32:08.171Z,93290.25
2022-10-02T08:33:39.921Z,93297.69
2022-10-02T08:35:12.321Z,93295.88
2022-10-02T08:36:59.605Z,93292.50
2022-10-02T08:38:49.396Z,93293.72
2022-10-02T08:40:34.807Z,93302.00
2022-10-02T08:42:26.377Z,93296.09
2022-10-02T08:44:16.577Z,93293.69
2022-10-02T08:46:02.195Z,93290.81
2022-10-02T08:48:00.011Z,93293.00
2022-10-02T08:49:43.591Z,93288.88
2022-10-02T08:51:21.568Z,93293.88
2022-10-02T08:53:00.290Z,93288.16
2022-10-02T08:54:31.818Z,93277.41
2022-10-02T08:56:22.321Z,93287.75
2022-10-02T08:58:03.674Z,93276.91
2022-10-02T08:59:58.336Z,93288.63
2022-10-02T09:01:39.299Z,93284.56
2022-10-02T09:03:20.228Z,93285.50
2022-10-02T09:05:01.145Z,93285.72
2022-10-02T09:06:32.730Z,93279.25
2022-10-02T09:08:26.483Z,93276.72
2022-10-02T09:10:20.933Z,93288.59
2022-10-02T09:12:11.389Z,93278.66
2022-10-02T09:13:50.400Z,93283.97
2022-10-02T09:15:23.380Z,93280.09
2022-10-02T09:16:58.017Z,93281.25
2022-10-02T09:18:48.902Z,93288.19
2022-10-02T09:20:36.208Z,93278.13
2022-10-02T09:22:07.847Z,93277.84
2022-10-02T09:23:55.433Z,93275.13
2022-10-02T09:25:29.676Z,93280.91
2022-10-02T09:27:20.297Z,93276.81
2022-10-02T09:29:02.960Z,93281.50
2022-10-02T09:30:34.564Z,93281.50
2022-10-02T09:32:16.164Z,93283.03
2022-10-02T09:33:55.022Z,93276.28
2022-10-02T09:35:42.073Z,93283.06
2022-10-02T09:37:31.845Z,93278.63
2022-10-02T09:39:25.191Z,93285.22
2022-10-02T09:41:15.554Z,93287.16
2022-10-02T09:43:05.772Z,93287.38
2022-10-02T09:44:37.988Z,93288.91
2022-10-02T09:46:12.880Z,93286.50
2022-10-02T09:47:44.908Z,93293.41
2022-10-02T09:49:36.893Z,93285.34
2022-10-02T09:51:08.605Z,93283.94
2022-10-02T09:52:48.633Z,93289.38
2022-10-02T09:54:41.579Z,93290.47
2022-10-02T09:56:19.354Z,93296.00
2022-10-02T09:57:57.659Z,93298.84
2022-10-02T09:59:36.680Z,93302.63
2022-10-02T10:01:18.365Z,93302.06
2022-10-02T10:02:51.214Z,93292.66
2022-10-02T10:04:42.187Z,93302.38
2022-10-02T10:06:49.891Z,93306.31
2022-10-02T10:08:40.483Z,93300.44
2022-10-02T10:10:14.889Z,93309.41
2022-10-02T10:11:51.586Z,93306.56
2022-10-02T10:13:26.630Z,93306.41
2022-10-02T10:15:20.387Z,93306.66
2022-10-02T10:16:55.227Z,93287.69
2022-10-02T10:18:32.847Z,93295.22
2022-10-02T10:20:07.295Z,93288.94
2022-10-02T10:21:57.542Z,93286.78
2022-10-02T10:23:38.420Z,93285.78
2022-10-02T10:25:18.374Z,93303.72
2022-10-02T10:26:56.564Z,93291.19
2022-10-02T10:28:34.444Z,93286.56
2022-10-02T10:30:09.070Z,93291.00
2022-10-02T10:31:41.555Z,93294.75
2022-10-02T10:33:13.355Z,93302.06
2022-10-02T10:34:54.294Z,93308.78
2022-10-02T10:36:46.731Z,93301.44
2022-10-02T10:38:37.500Z,93298.44
2022-10-02T10:40:22.370Z,93300.31
2022-10-02T10:41:53.922Z,93293.97
2022-10-02T10:43:42.354Z,93299.16
2022-10-02T10:45:20.410Z,93293.00
2022-10-02T10:47:15.528Z,93282.34
2022-10-02T10:48:56.424Z,93285.38
2022-10-02T10:50:43.008Z,93286.88
2022-10-02T10:52:16.366Z,93281.09
2022-10-02T10:53:57.179Z,93294.00
2022-10-02T10:55:43.819Z,93285.09
2022-10-02T10:57:15.441Z,93298.00
2022-10-02T10:58:48.885Z,93295.16
2022-10-02T11:00:46.888Z,93295.81
2022-10-02T11:02:19.107Z,93296.44
2022-10-02T11:03:58.760Z,93296.22
2022-10-02T11:05:40.759Z,93289.47
2022-10-02T11:07:14.146Z,93288.16
2022-10-02T11:08:45.874Z,93286.44
2022-10-02T11:10:43.872Z,93289.75
2022-10-02T11:12:28.878Z,93282.31
2022-10-02T11:14:09.625Z,93281.97
2022-10-02T11:15:45.084Z,93288.31
2022-10-02T11:17:32.046Z,93279.22
2022-10-02T11:19:11.178Z,93270.50
2022-10-02T11:20:55.774Z,93280.47
2022-10-02T11:22:45.960Z,93271.41
2022-10-02T11:24:21.003Z,93284.97
2022-10-02T11:26:07.204Z,93279.66
2022-10-02T11:27:59.533Z,93290.97
2022-10-02T11:29:39.179Z,93291.59
2022-10-02T11:31:30.066Z,93293.72
2022-10-02T11:33:02.551Z,93295.47
2022-10-02T11:34:46.942Z,93289.69
2022-10-02T11:36:25.349Z,93280.41
2022-10-02T11:38:04.261Z,93290.66
2022-10-02T11:39:51.137Z,93284.03
2022-10-02T11:41:25.707Z,93278.03
2022-10-02T11:43:16.476Z,93265.59
2022-10-02T11:44:48.798Z,93263.91
2022-10-02T11:46:38.813Z,93271.41
2022-10-02T11:48:28.836Z,93274.56
2022-10-02T11:50:04.250Z,93265.03
2022-10-02T11:51:46.593Z,93272.97
2022-10-02T11:53:27.573Z,93264.53
2022-10-02T11:55:19.767Z,93263.97
2022-10-02T11:57:03.881Z,93265.88
2022-10-02T11:58:45.436Z,93266.03
2022-10-02T12:00:36.337Z,93277.16
2022-10-02T12:02:08.715Z,93266.31
2022-10-02T12:03:40.454Z,93273.09
2022-10-02T12:05:28.292Z,93271.72
2022-10-02T12:07:18.677Z,93273.13
2022-10-02T12:09:09.062Z,93266.28
2022-10-02T12:10:44.394Z,93265.63
2022-10-02T12:12:38.694Z,93271.56
2022-10-02T12:14:13.552Z,93276.81
2022-10-02T12:16:00.142Z,93280.50
2022-10-02T12:17:35.174Z,93286.06
2022-10-02T12:19:15.948Z,93276.31
2022-10-02T12:21:12.582Z,93286.16
2022-10-02T12:23:05.646Z,93274.38
2022-10-02T12:25:14.861Z,93285.78
2022-10-02T12:27:02.819Z,93283.38
2022-10-02T12:28:56.770Z,93288.00
2022-10-02T12:30:31.521Z,93291.78
2022-10-02T12:32:24.940Z,93282.31
2022-10-02T12:34:04.325Z,93279.00
2022-10-02T12:35:48.188Z,93288.31
2022-10-02T12:37:22.871Z,93284.75
2022-10-02T12:39:18.791Z,93282.41
2022-10-02T12:41:08.880Z,93283.97
2022-10-02T12:42:57.809Z,93281.97
2022-10-02T12:44:29.557Z,93278.69
2022-10-02T12:46:14.403Z,93284.75
2022-10-02T12:47:52.188Z,93290.88
2022-10-02T12:49:30.081Z,93289.00
2022-10-02T12:51:22.273Z,93289.53
2022-10-02T12:53:00.600Z,93298.69
2022-10-02T12:54:58.786Z,93293.78
2022-10-02T12:56:49.809Z,93284.44
2022-10-02T12:58:24.725Z,93281.72
2022-10-02T13:00:00.084Z,93291.44
2022-10-02T13:01:50.229Z,93283.16
2022-10-02T13:03:37.321Z,93282.75
2022-10-02T13:05:09.550Z,93290.97
2022-10-02T13:06:46.872Z,93281.88
2022-10-02T13:08:40.866Z,93259.00
2022-10-02T13:10:22.049Z,93277.41
2022-10-02T13:11:56.028Z,93277.94
2022-10-02T13:13:40.006Z,93288.75
2022-10-02T13:15:19.855Z,93289.91
2022-10-02T13:16:58.130Z,93292.47
2022-10-02T13:18:33.901Z,93295.91
2022-10-02T13:20:26.737Z,93286.94
2022-10-02T13:21:59.197Z,93298.91
2022-10-02T13:23:46.140Z,93298.50
2022-10-02T13:25:19.102Z,93291.91
2022-10-02T13:26:51.685Z,93290.75
2022-10-02T13:28:29.572Z,93296.34
2022-10-02T13:30:19.787Z,93289.84
2022-10-02T13:32:05.201Z,93294.72
2022-10-02T13:33:45.605Z,93283.91
2022-10-02T13:35:20.459Z,93292.28
2022-10-02T13:37:10.965Z,93284.88
2022-10-02T13:39:01.526Z,93296.22
2022-10-02T13:40:42.287Z,93295.06
2022-10-02T13:42:18.464Z,93299.25
2022-10-02T13:44:08.058Z,93289.06
2022-10-02T13:45:55.555Z,93296.50
2022-10-02T13:47:27.569Z,93307.44
2022-10-02T13:49:01.962Z,93298.84
2022-10-02T13:50:38.176Z,93299.59
2022-10-02T13:52:28.649Z,93299.72
2022-10-02T13:54:03.955Z,93307.28
2022-10-02T13:55:39.511Z,93297.91
2022-10-02T13:57:30.515Z,93294.41
2022-10-02T13:59:02.409Z,93291.25
2022-10-02T14:00:40.644Z,93292.47
2022-10-02T14:03:54.800Z,93296.31
2022-10-02T14:05:26.574Z,93293.91
2022-10-02T14:07:18.953Z,93288.00
2022-10-02T14:09:09.317Z,93296.88
2022-10-02T14:10:47.152Z,93296.00
2022-10-02T14:12:29.475Z,93300.16
2022-10-02T14:14:03.594Z,93290.22
2022-10-02T14:15:42.062Z,93283.47
2022-10-02T14:17:16.953Z,93290.41
2022-10-02T14:19:03.462Z,93291.84
2022-10-02T14:20:46.949Z,93293.38
2022-10-02T14:22:37.917Z,93291.97
2022-10-02T14:24:20.247Z,93285.50
2022-10-02T14:26:11.459Z,93278.72
2022-10-02T14:28:09.756Z,93279.00
2022-10-02T14:29:46.134Z,93277.44
2022-10-02T14:31:37.163Z,93277.78
2022-10-02T14:33:17.330Z,93273.81
2022-10-02T14:35:00.920Z,93278.88
2022-10-02T14:36:36.403Z,93276.50
2022-10-02T14:38:14.092Z,93273.34
2022-10-02T14:39:46.148Z,93272.81
2022-10-02T14:41:30.309Z,93270.41
2022-10-02T14:43:07.746Z,93263.25
2022-10-02T14:44:42.329Z,93258.16
2022-10-02T14:46:33.600Z,93263.97
2022-10-02T14:48:11.446Z,93259.50
2022-10-02T14:50:01.377Z,93267.25
2022-10-02T14:51:52.026Z,93255.53
2022-10-02T14:53:30.203Z,93255.03
2022-10-02T14:55:04.968Z,93238.50
2022-10-02T14:56:57.969Z,93239.22
2022-10-02T14:58:48.513Z,93245.03
2022-10-02T15:00:21.435Z,93248.13
2022-10-02T15:02:14.635Z,93243.28
2022-10-02T15:04:01.225Z,93240.97
2022-10-02T15:05:35.457Z,93244.06
2022-10-02T15:07:08.193Z,93242.06
2022-10-02T15:08:50.568Z,93244.53
2022-10-02T15:10:22.608Z,93255.03
2022-10-02T15:12:02.695Z,93246.59
2022-10-02T15:13:34.536Z,93254.16
2022-10-02T15:15:10.953Z,93256.84
2022-10-02T15:17:08.106Z,93252.09
2022-10-02T15:18:40.107Z,93255.50
2022-10-02T15:20:26.209Z,93262.84
2022-10-02T15:21:58.513Z,93258.00
2022-10-02T15:23:32.805Z,93254.84
2022-10-02T15:25:27.676Z,93252.13
2022-10-02T15:27:11.812Z,93263.81
2022-10-02T15:28:49.151Z,93263.47
2022-10-02T15:30:20.864Z,93258.00
2022-10-02T15:32:06.971Z,93260.75
2022-10-02T15:33:43.103Z,93251.75
2022-10-02T15:35:20.747Z,93253.69
2022-10-02T15:36:59.183Z,93249.38
2022-10-02T15:38:44.372Z,93248.88
2022-10-02T15:40:21.984Z,93250.28
2022-10-02T15:41:59.677Z,93250.66
2022-10-02T15:43:47.872Z,93245.22
2022-10-02T15:45:25.895Z,93255.75
2022-10-02T15:47:05.871Z,93255.34
2022-10-02T15:48:46.911Z,93257.88
2022-10-02T15:50:39.331Z,93257.03
2022-10-02T15:52:13.491Z,93253.75
2022-10-02T15:53:45.037Z,93253.25
2022-10-02T15:55:19.462Z,93255.09
2022-10-02T15:57:07.528Z,93255.66
2022-10-02T15:58:48.176Z,93258.69
2022-10-02T16:00:22.714Z,93243.38
2022-10-02T16:02:17.545Z,93248.41
2022-10-02T16:04:00.208Z,93253.16
2022-10-02T16:05:41.113Z,93252.31
2022-10-02T16:07:16.883Z,93247.75
2022-10-02T16:08:48.605Z,93255.75
2022-10-02T16:10:32.536Z,93252.47
2022-10-02T16:12:14.579Z,93251.94
2022-10-02T16:13:52.070Z,93253.78
2022-10-02T16:15:31.473Z,93257.97
2022-10-02T16:17:07.869Z,93254.72
2022-10-02T16:18:45.852Z,93263.09
2022-10-02T16:20:17.419Z,93256.00
2022-10-02T16:21:55.095Z,93256.22
2022-10-02T16:23:29.900Z,93256.13
2022-10-02T16:25:19.854Z,93253.53
2022-10-02T16:27:11.541Z,93252.09
2022-10-02T16:28:56.488Z,93258.50
2022-10-02T16:30:28.084Z,93253.97
2022-10-02T16:32:12.535Z,93262.38
2022-10-02T16:34:03.053Z,93255.16
2022-10-02T16:35:44.174Z,93256.41
2022-10-02T16:37:15.851Z,93259.16
2022-10-02T16:38:53.721Z,93254.03
2022-10-02T16:40:43.764Z,93261.41
2022-10-02T16:42:22.198Z,93257.88
2022-10-02T16:44:12.753Z,93260.25
2022-10-02T16:45:53.023Z,93256.28
2022-10-02T16:47:38.407Z,93258.97
2022-10-02T16:49:21.857Z,93256.59
2022-10-02T16:51:09.571Z,93254.47
2022-10-02T16:52:41.193Z,93248.22
2022-10-02T16:54:17.281Z,93254.53
2022-10-02T16:55:51.125Z,93260.03
2022-10-02T16:57:50.240Z,93259.31
2022-10-02T16:59:54.725Z,93255.41
2022-10-02T17:01:28.268Z,93258.66
2022-10-02T17:02:59.962Z,93256.16
2022-10-02T17:04:42.964Z,93266.41
2022-10-02T17:06:41.096Z,93261.66
2022-10-02T17:08:15.574Z,93259.41
2022-10-02T17:10:18.099Z,93254.78
2022-10-02T17:11:59.784Z,93252.53
2022-10-02T17:13:51.202Z,93259.72
2022-10-02T17:15:25.674Z,93253.25
2022-10-02T17:17:02.048Z,93250.25
2022-10-02T17:18:46.884Z,93262.44
2022-10-02T17:20:30.712Z,93250.03
2022-10-02T17:22:04.990Z,93252.81
2022-10-02T17:23:46.118Z,93242.47
2022-10-02T17:25:17.739Z,93245.56
2022-10-02T17:27:13.216Z,93250.41
2022-10-02T17:28:57.530Z,93245.16
2022-10-02T17:30:30.439Z,93246.81
2022-10-02T17:32:02.694Z,93252.38
2022-10-02T17:33:45.638Z,93251.28
2022-10-02T17:35:18.263Z,93252.06
2022-10-02T17:37:12.591Z,93244.41
2022-10-02T17:38:56.204Z,93249.94
2022-10-02T17:40:29.138Z,93251.75
2022-10-02T17:42:06.484Z,93246.81
2022-10-02T17:43:52.976Z,93251.16
2022-10-02T17:45:31.670Z,93257.91
2022-10-02T17:47:03.443Z,93243.25
2022-10-02T17:48:53.739Z,93246.75
2022-10-02T17:50:30.106Z,93239.75
2022-10-02T17:52:31.712Z,93236.75
2022-10-02T17:54:25.852Z,93231.88
2022-10-02T17:56:22.472Z,93226.31
2022-10-02T17:58:16.970Z,93230.44
2022-10-02T17:59:51.625Z,93231.88
2022-10-02T18:01:27.068Z,93232.69
2022-10-02T18:03:05.223Z,93232.34
2022-10-02T18:04:40.200Z,93222.53
2022-10-02T18:06:28.802Z,93225.84
2022-10-02T18:08:00.332Z,93219.03
2022-10-02T18:09:57.306Z,93226.34
2022-10-02T18:11:41.820Z,93221.84
2022-10-02T18:13:36.068Z,93224.09
2022-10-02T18:15:27.692Z,93230.59
2022-10-02T18:17:17.908Z,93232.06
2022-10-02T18:19:22.171Z,93242.09
2022-10-02T18:21:02.144Z,93231.13
2022-10-02T18:22:44.699Z,93231.91
2022-10-02T18:24:37.513Z,93237.97
2022-10-02T18:26:19.060Z,93235.88
2022-10-02T18:27:56.143Z,93233.84
2022-10-02T18:29:30.651Z,93226.06
2022-10-02T18:31:08.898Z,93227.31
2022-10-02T18:32:40.537Z,93214.00
2022-10-02T18:34:31.849Z,93222.41
2022-10-02T18:36:21.929Z,93225.91
2022-10-02T18:37:57.762Z,93223.69
2022-10-02T18:39:45.090Z,93223.03
2022-10-02T18:41:36.511Z,93218.41
2022-10-02T18:43:27.409Z,93207.75
2022-10-02T18:45:11.831Z,93213.66
2022-10-02T18:46:53.043Z,93213.97
2022-10-02T18:48:43.656Z,93221.91
2022-10-02T18:50:39.913Z,93219.25
2022-10-02T18:52:15.230Z,93217.34
2022-10-02T18:54:02.416Z,93211.19
2022-10-02T18:55:49.086Z,93213.22
2022-10-02T18:57:39.031Z,93218.81
2022-10-02T18:59:13.650Z,93215.94
2022-10-02T19:00:48.277Z,93224.53
2022-10-02T19:02:35.588Z,93224.84
2022-10-02T19:04:16.513Z,93213.25
2022-10-02T19:05:56.805Z,93208.31
2022-10-02T19:07:30.058Z,93212.28
2022-10-02T19:09:11.152Z,93209.56
2022-10-02T19:10:51.203Z,93210.84
2022-10-02T19:12:28.117Z,93216.41
2022-10-02T19:14:03.579Z,93217.38
2022-10-02T19:15:37.952Z,93212.41
2022-10-02T19:17:13.258Z,93213.53
2022-10-02T19:18:45.023Z,93206.69
2022-10-02T19:20:36.290Z,93204.16
2022-10-02T19:22:22.297Z,93206.22
2022-10-02T19:24:04.934Z,93209.06
2022-10-02T19:25:38.316Z,93209.22
2022-10-02T19:27:16.235Z,93214.47
2022-10-02T19:28:49.343Z,93210.78
2022-10-02T19:30:23.576Z,93217.16
2022-10-02T19:31:56.292Z,93214.59
2022-10-02T19:33:53.913Z,93210.91
2022-10-02T19:35:28.825Z,93211.53
2022-10-02T19:37:02.302Z,93204.34
2022-10-02T19:38:37.649Z,93207.53
2022-10-02T19:40:35.351Z,93201.34
2022-10-02T19:42:10.380Z,93197.03
2022-10-02T19:43:46.870Z,93205.47
2022-10-02T19:45:29.064Z,93206.94
2022-10-02T19:47:04.184Z,93205.66